Time;durP1;ratioP1;P1;durP2;ratioP2;P2;SDS_P1;SDS_P2;PMS_P1;PMS_P2;Temp;Humidity;BMP_temperature;BMP_pressure;BME280_temperature;BME280_humidity;BME280_pressure;Samples;Min_cycle;Max_cycle;Signal;HPM_P1;HPM_P2
2023/07/20 00:02:37;;;;;;;1.10;1.10;;;;;;;23.09;69.62;96631.28;5000106;28;20632;-68
2023/07/20 00:05:03;;;;;;;1.10;1.10;;;;;;;23.21;69.39;96627.56;5000744;28;20060;-66
2023/07/20 00:07:30;;;;;;;1.08;1.08;;;;;;;23.08;69.71;96624.81;4983956;28;20084;-66
2023/07/20 00:09:57;;;;;;;0.90;0.90;;;;;;;22.92;68.50;96585.47;4984334;28;20056;-66
2023/07/20 00:12:24;;;;;;;1.10;1.10;;;;;;;22.95;66.44;96535.75;5000564;28;20568;-66
2023/07/20 00:14:53;;;;;;;1.10;1.10;;;;;;;23.72;66.59;96606.13;5000714;28;20089;-67
2023/07/20 00:17:20;;;;;;;1.10;1.10;;;;;;;23.66;64.83;96559.91;5000624;28;20085;-68
2023/07/20 00:19:47;;;;;;;1.20;1.20;;;;;;;24.11;63.65;96615.81;5000519;28;20089;-67
2023/07/20 00:22:14;;;;;;;1.10;1.10;;;;;;;24.17;63.70;96609.06;5000513;28;20133;-68
2023/07/20 00:24:41;;;;;;;1.10;1.10;;;;;;;24.14;63.29;96553.38;5003001;28;20096;-68
2023/07/20 00:27:07;;;;;;;1.20;1.20;;;;;;;24.05;62.74;96561.88;5004354;28;20104;-67
2023/07/20 00:29:35;;;;;;;1.02;1.02;;;;;;;23.97;61.88;96526.66;4988101;28;20057;-67
2023/07/20 00:32:04;;;;;;;1.10;1.10;;;;;;;24.34;61.34;96550.88;4987831;28;20049;-66
2023/07/20 00:34:31;;;;;;;1.20;1.20;;;;;;;24.58;60.92;96562.34;5004022;28;20607;-67
2023/07/20 00:36:58;;;;;;;1.05;1.05;;;;;;;24.52;60.43;96510.41;5004053;28;20053;-66
2023/07/20 00:39:25;;;;;;;1.00;1.00;;;;;;;24.20;59.91;96431.84;5016533;28;20055;-66
2023/07/20 00:41:51;;;;;;;1.10;1.10;;;;;;;24.72;59.98;96525.66;5046159;28;20067;-68
2023/07/20 00:44:18;;;;;;;0.98;0.98;;;;;;;24.37;60.69;96427.38;5046418;28;20063;-66
2023/07/20 00:46:46;;;;;;;1.20;1.20;;;;;;;24.66;62.67;96465.25;5044338;28;20508;-67
2023/07/20 00:49:14;;;;;;;1.15;1.15;;;;;;;25.06;64.47;96508.22;5046415;28;20052;-68
2023/07/20 00:51:41;;;;;;;1.00;1.00;;;;;;;24.78;64.39;96455.78;5046072;28;20053;-68
2023/07/20 00:54:08;;;;;;;1.20;1.20;;;;;;;25.08;65.87;96485.88;5046928;28;20056;-67
2023/07/20 00:56:35;;;;;;;1.20;1.20;;;;;;;24.91;66.23;96442.16;5046437;28;20049;-67
2023/07/20 00:59:02;;;;;;;1.13;1.13;;;;;;;24.52;65.91;96402.78;5046687;28;20491;-67
2023/07/20 01:01:29;;;;;;;1.10;1.10;;;;;;;24.57;65.40;96411.44;5046412;28;20079;-69
2023/07/20 01:03:56;;;;;;;1.00;1.00;;;;;;;24.64;66.38;96416.75;5046707;28;20056;-67
2023/07/20 01:06:47;;;;;;;1.13;1.13;;;;;;;24.66;68.11;96424.78;5046246;28;20053;-67
2023/07/20 01:09:27;;;;;;;1.20;1.20;;;;;;;24.09;68.21;96353.06;5046565;28;20140;-67
2023/07/20 01:12:13;;;;;;;1.27;1.27;;;;;;;24.62;68.09;96424.94;5044833;28;20051;-68
2023/07/20 01:14:40;;;;;;;1.30;1.30;;;;;;;24.58;67.85;96413.00;5046488;28;20258;-69
2023/07/20 01:17:07;;;;;;;1.10;1.10;;;;;;;24.13;66.20;96341.59;5044571;28;20053;-67
2023/07/20 01:19:34;;;;;;;1.13;1.13;;;;;;;24.77;65.26;96454.19;5046389;28;20057;-67
2023/07/20 01:22:34;;;;;;;1.17;1.17;;;;;;;24.65;65.46;96452.31;5046120;28;20061;-68
2023/07/20 01:25:38;;;;;;;1.10;1.10;;;;;;;24.62;66.03;96456.09;5044707;28;20076;-69
2023/07/20 01:28:32;;;;;;;1.20;1.20;;;;;;;24.31;66.47;96421.56;5044284;28;20056;-67
2023/07/20 01:31:09;;;;;;;1.13;1.13;;;;;;;23.11;67.25;96238.81;5045325;28;20416;-67
2023/07/20 01:33:37;;;;;;;1.05;1.05;;;;;;;24.32;66.25;96411.03;5045500;28;20481;-68
2023/07/20 01:36:06;;;;;;;1.20;1.20;;;;;;;24.11;66.11;96383.72;5044862;28;20059;-68
2023/07/20 01:38:33;;;;;;;1.10;1.10;;;;;;;24.27;66.34;96406.00;5045970;28;20428;-68
2023/07/20 01:40:59;;;;;;;1.10;1.10;;;;;;;24.20;66.07;96384.47;5045150;28;20542;-68
2023/07/20 01:43:26;;;;;;;1.30;1.30;;;;;;;24.41;65.95;96420.28;5045380;28;20053;-69
2023/07/20 01:45:53;;;;;;;1.10;1.10;;;;;;;24.48;65.68;96425.63;5044106;28;20065;-67
2023/07/20 01:48:19;;;;;;;1.05;1.05;;;;;;;24.45;65.69;96408.81;5045603;28;20055;-68
2023/07/20 01:50:46;;;;;;;1.10;1.10;;;;;;;24.28;65.54;96382.88;5045515;28;20080;-68
2023/07/20 01:53:13;;;;;;;1.10;1.10;;;;;;;24.55;64.65;96402.63;5044473;28;20053;-68
2023/07/20 01:55:40;;;;;;;1.00;1.00;;;;;;;23.46;68.62;96384.22;5043535;28;20045;-67
2023/07/20 01:58:06;;;;;;;1.20;1.20;;;;;;;23.57;69.74;96410.00;5056754;28;20503;-68
2023/07/20 02:00:33;;;;;;;1.02;1.02;;;;;;;23.77;70.39;96449.94;5064917;28;20052;-68
2023/07/20 02:03:00;;;;;;;1.00;1.00;;;;;;;23.39;70.51;96384.56;5065386;28;20048;-67
2023/07/20 02:05:26;;;;;;;1.08;1.08;;;;;;;23.60;69.69;96411.91;5064863;28;20052;-68
2023/07/20 02:07:53;;;;;;;1.10;1.10;;;;;;;23.50;69.94;96413.16;5064632;28;20059;-68
2023/07/20 02:10:20;;;;;;;1.15;1.15;;;;;;;23.63;69.80;96439.25;5046772;28;20049;-67
2023/07/20 02:12:47;;;;;;;0.93;0.93;;;;;;;23.12;69.65;96356.25;5044598;28;20582;-67
2023/07/20 02:15:16;;;;;;;1.02;1.02;;;;;;;23.27;69.47;96377.00;5044935;28;20064;-67
2023/07/20 02:17:43;;;;;;;1.05;1.05;;;;;;;23.56;69.65;96399.94;5044656;28;20045;-67
2023/07/20 02:20:10;;;;;;;1.10;1.10;;;;;;;23.80;69.36;96420.69;5043539;28;20673;-67
2023/07/20 02:22:38;;;;;;;1.10;1.10;;;;;;;23.84;68.12;96436.25;5044650;28;20045;-68
2023/07/20 02:25:06;;;;;;;1.00;1.00;;;;;;;23.74;68.69;96445.22;5044897;28;20052;-67
2023/07/20 02:27:34;;;;;;;0.90;0.90;;;;;;;23.76;69.67;96493.59;5044746;28;20057;-68
2023/07/20 02:30:02;;;;;;;0.90;0.90;;;;;;;23.62;70.02;96432.00;5045298;28;20048;-67
2023/07/20 02:32:29;;;;;;;1.10;1.10;;;;;;;23.55;68.27;96421.00;5043168;28;20048;-68
2023/07/20 02:34:56;;;;;;;1.13;1.13;;;;;;;23.14;70.22;96430.03;5043671;28;20499;-67
2023/07/20 02:37:23;;;;;;;1.30;1.30;;;;;;;23.51;69.81;96459.94;5043979;28;20435;-67
2023/07/20 02:39:50;;;;;;;1.10;1.10;;;;;;;23.63;69.74;96478.84;5044209;28;20049;-68
2023/07/20 02:42:16;;;;;;;0.90;0.90;;;;;;;23.46;70.63;96474.69;5044195;28;20052;-67
2023/07/20 02:44:43;;;;;;;1.02;1.02;;;;;;;23.38;70.42;96467.78;5044339;28;20049;-67
2023/07/20 02:47:10;;;;;;;0.90;0.90;;;;;;;23.04;69.68;96397.34;5041824;28;20067;-67
2023/07/20 02:49:37;;;;;;;1.02;1.02;;;;;;;23.41;69.02;96472.53;5044021;28;20057;-67
2023/07/20 02:52:04;;;;;;;1.00;1.00;;;;;;;23.58;68.28;96476.63;5042624;28;20072;-68
2023/07/20 02:54:30;;;;;;;1.00;1.00;;;;;;;23.31;68.29;96414.38;5034919;28;20535;-68
2023/07/20 02:56:57;;;;;;;1.00;1.00;;;;;;;23.31;69.97;96460.41;5042799;28;20059;-67
2023/07/20 02:59:24;;;;;;;0.90;0.90;;;;;;;23.17;70.34;96440.41;5063850;28;20546;-68
2023/07/20 03:01:50;;;;;;;0.80;0.80;;;;;;;23.44;69.44;96477.25;5063923;28;20466;-67
2023/07/20 03:04:17;;;;;;;0.90;0.90;;;;;;;23.01;69.60;96420.88;5063555;28;20520;-68
2023/07/20 03:06:44;;;;;;;1.10;1.10;;;;;;;23.37;69.44;96483.97;5063390;28;20052;-67
2023/07/20 03:09:10;;;;;;;1.10;1.10;;;;;;;23.25;69.72;96442.47;5062661;28;20053;-67
2023/07/20 03:11:37;;;;;;;0.95;0.95;;;;;;;23.39;69.41;96480.69;5063580;28;20058;-68
2023/07/20 03:14:04;;;;;;;1.00;1.00;;;;;;;22.99;68.95;96412.09;5063611;28;20059;-67
2023/07/20 03:16:32;;;;;;;1.08;1.08;;;;;;;23.45;68.59;96473.94;5063733;28;20404;-67
2023/07/20 03:19:06;;;;;;;0.90;0.90;;;;;;;23.49;68.90;96479.44;5063933;28;20064;-68
2023/07/20 03:21:32;;;;;;;1.00;1.00;;;;;;;23.09;68.54;96428.63;5064123;28;20058;-67
2023/07/20 03:23:59;;;;;;;1.10;1.10;;;;;;;23.47;68.32;96476.28;5062423;28;20060;-68
2023/07/20 03:26:26;;;;;;;1.08;1.08;;;;;;;23.30;68.56;96426.97;5064277;28;20052;-68
2023/07/20 03:28:52;;;;;;;1.00;1.00;;;;;;;22.13;67.54;96255.91;5063710;28;20052;-68
2023/07/20 03:31:19;;;;;;;1.02;1.02;;;;;;;23.60;67.30;96474.13;5063637;28;20060;-69
2023/07/20 03:33:46;;;;;;;1.10;1.10;;;;;;;23.20;67.87;96395.03;5061772;28;20117;-68
2023/07/20 03:36:12;;;;;;;1.10;1.10;;;;;;;23.25;67.96;96397.25;5063936;28;20060;-68
2023/07/20 03:38:39;;;;;;;1.00;1.00;;;;;;;23.69;67.17;96454.31;5061868;28;20048;-68
2023/07/20 03:41:06;;;;;;;1.00;1.00;;;;;;;23.48;66.84;96426.97;5063612;28;20041;-68
2023/07/20 03:43:32;;;;;;;1.10;1.10;;;;;;;24.03;65.83;96485.16;5061917;28;20063;-68
2023/07/20 03:45:59;;;;;;;0.90;0.90;;;;;;;23.53;68.26;96497.03;5063639;28;20048;-68
2023/07/20 03:48:26;;;;;;;0.98;0.98;;;;;;;22.91;71.53;96467.31;5063367;28;20052;-68
2023/07/20 03:50:54;;;;;;;1.17;1.17;;;;;;;23.29;70.23;96464.94;5059408;28;20442;-67
2023/07/20 03:53:21;;;;;;;1.00;1.00;;;;;;;23.20;68.41;96405.53;5061852;28;20052;-67
2023/07/20 03:55:49;;;;;;;1.00;1.00;;;;;;;23.83;67.70;96457.31;5063493;28;20084;-67
2023/07/20 03:58:17;;;;;;;1.00;1.00;;;;;;;24.32;66.14;96505.25;5052407;28;20583;-68
2023/07/20 04:00:48;;;;;;;1.02;1.02;;;;;;;24.44;65.93;96497.84;5045965;28;20059;-68
2023/07/20 04:03:15;;;;;;;1.10;1.10;;;;;;;23.42;65.47;96310.13;5047425;28;20057;-68
2023/07/20 04:05:43;;;;;;;1.10;1.10;;;;;;;24.84;65.08;96501.22;5046360;28;20146;-68
2023/07/20 04:08:11;;;;;;;0.93;0.93;;;;;;;24.80;64.30;96492.13;5047290;28;20060;-68
2023/07/20 04:10:38;;;;;;;1.10;1.10;;;;;;;25.06;63.39;96511.06;5047118;28;20429;-67
2023/07/20 04:13:05;;;;;;;1.15;1.15;;;;;;;25.20;62.92;96516.03;5045760;28;20508;-69
2023/07/20 04:15:32;;;;;;;1.17;1.17;;;;;;;25.22;63.34;96507.84;5047241;28;20049;-67
2023/07/20 04:18:00;;;;;;;1.20;1.20;;;;;;;25.10;63.12;96483.31;5046729;28;20522;-67
2023/07/20 04:20:27;;;;;;;1.10;1.10;;;;;;;25.24;62.84;96499.63;5045556;28;20084;-67
2023/07/20 04:22:54;;;;;;;1.27;1.27;;;;;;;25.09;63.44;96498.78;5046750;28;20166;-67
2023/07/20 04:25:21;;;;;;;1.10;1.10;;;;;;;24.67;63.24;96444.16;5045686;28;20096;-67
2023/07/20 04:27:47;;;;;;;1.20;1.20;;;;;;;25.27;62.87;96510.03;5046936;28;20084;-68
2023/07/20 04:30:19;;;;;;;1.30;1.30;;;;;;;25.18;62.93;96492.28;5046255;28;20049;-67
2023/07/20 04:32:46;;;;;;;1.20;1.20;;;;;;;25.01;62.64;96423.84;5045762;28;20111;-67
2023/07/20 04:35:44;;;;;;;1.10;1.10;;;;;;;25.62;62.11;96496.16;5046306;28;20052;-69
2023/07/20 04:38:11;;;;;;;1.20;1.20;;;;;;;25.24;62.34;96425.91;5047022;28;20151;-68
2023/07/20 04:40:37;;;;;;;1.08;1.08;;;;;;;25.46;61.63;96441.88;5046245;28;20056;-68
2023/07/20 04:43:05;;;;;;;1.40;1.40;;;;;;;25.53;61.58;96458.56;5046583;28;20057;-68
2023/07/20 04:45:32;;;;;;;1.15;1.15;;;;;;;25.18;61.28;96359.03;5045956;28;20049;-69
2023/07/20 04:47:58;;;;;;;1.40;1.40;;;;;;;25.77;60.83;96434.56;5045177;28;20132;-68
2023/07/20 04:50:25;;;;;;;1.20;1.20;;;;;;;26.00;61.07;96476.34;5046234;28;20057;-68
2023/07/20 04:52:53;;;;;;;1.20;1.20;;;;;;;25.59;60.64;96394.19;5046685;28;20136;-68
2023/07/20 04:55:20;;;;;;;1.30;1.30;;;;;;;26.21;61.08;96485.78;5045945;28;20053;-68
2023/07/20 04:57:46;;;;;;;1.27;1.27;;;;;;;26.09;60.42;96466.97;5051074;28;20078;-69
2023/07/20 05:00:14;;;;;;;1.40;1.40;;;;;;;25.86;61.22;96436.53;5064533;28;20478;-68
2023/07/20 05:02:40;;;;;;;1.20;1.20;;;;;;;26.43;60.27;96486.22;5066688;28;20044;-69
2023/07/20 05:05:07;;;;;;;1.20;1.20;;;;;;;26.66;59.25;96476.84;5064579;28;20080;-69
2023/07/20 05:07:34;;;;;;;1.20;1.20;;;;;;;26.81;59.33;96488.97;5066601;28;20127;-69
2023/07/20 05:10:01;;;;;;;1.20;1.20;;;;;;;26.92;59.50;96489.16;5065059;28;20073;-68
2023/07/20 05:12:27;;;;;;;1.30;1.30;;;;;;;26.52;59.04;96434.97;5064788;28;20053;-69
2023/07/20 05:14:54;;;;;;;1.40;1.40;;;;;;;26.09;58.69;96342.81;5065720;28;20054;-68
2023/07/20 05:17:21;;;;;;;1.15;1.15;;;;;;;26.93;58.31;96475.75;5064737;28;20421;-68
2023/07/20 05:19:48;;;;;;;1.27;1.27;;;;;;;26.84;58.42;96464.47;5066067;28;20064;-69
2023/07/20 05:22:14;;;;;;;1.30;1.30;;;;;;;27.12;58.46;96491.31;5066017;28;20048;-68
2023/07/20 05:24:41;;;;;;;1.38;1.38;;;;;;;26.78;57.68;96407.53;5065822;28;20055;-69
2023/07/20 05:27:07;;;;;;;1.40;1.40;;;;;;;27.25;57.15;96486.84;5064298;28;20056;-69
2023/07/20 05:29:34;;;;;;;1.33;1.33;;;;;;;26.71;57.77;96376.69;5062927;28;20070;-70
2023/07/20 05:32:02;;;;;;;1.42;1.42;;;;;;;26.99;57.83;96420.53;5054023;28;20065;-66
2023/07/20 05:34:29;;;;;;;1.25;1.25;;;;;;;27.61;57.38;96483.56;5070160;28;20052;-69
2023/07/20 05:36:56;;;;;;;1.40;1.40;;;;;;;27.83;56.21;96469.63;5078508;28;20505;-71
2023/07/20 05:39:23;;;;;;;1.50;1.50;;;;;;;26.96;55.47;96285.06;5045782;28;20057;-68
2023/07/20 05:41:49;;;;;;;1.45;1.45;;;;;;;28.26;55.27;96461.34;5045647;28;20474;-71
2023/07/20 05:44:16;;;;;;;1.55;1.55;;;;;;;28.38;53.82;96443.06;5045627;28;20053;-68
2023/07/20 05:46:43;;;;;;;1.80;1.80;;;;;;;28.29;53.35;96457.47;5046712;28;20057;-66
2023/07/20 05:49:23;;;;;;;1.55;1.55;;;;;;;28.90;53.50;96467.41;5064524;28;20515;-68
2023/07/20 05:51:50;;;;;;;1.80;1.80;;;;;;;28.69;51.50;96406.09;5063059;28;20345;-70
2023/07/20 05:54:17;;;;;;;1.67;1.67;;;;;;;29.10;51.41;96458.81;5063322;28;20055;-70
2023/07/20 05:56:43;;;;;;;1.80;1.80;;;;;;;28.74;51.61;96374.00;5057146;28;20081;-68
2023/07/20 05:59:10;;;;;;;1.80;1.80;;;;;;;28.66;50.41;96344.38;5050216;28;20043;-69
2023/07/20 06:01:37;;;;;;;1.80;1.80;;;;;;;29.36;49.83;96425.25;5063624;28;20056;-70
2023/07/20 06:04:04;;;;;;;1.80;1.80;;;;;;;29.44;49.13;96392.09;5064722;28;20094;-69
2023/07/20 06:06:31;;;;;;;1.63;1.63;;;;;;;29.07;50.38;96402.78;5064591;28;20044;-74
2023/07/20 06:08:57;;;;;;;1.75;1.75;;;;;;;29.70;49.81;96447.03;5062112;28;20057;-70
2023/07/20 06:11:24;;;;;;;1.73;1.73;;;;;;;29.88;48.44;96395.16;5062701;28;20052;-71
2023/07/20 06:13:51;;;;;;;1.73;1.73;;;;;;;29.23;48.15;96296.50;5061493;28;20051;-75
2023/07/20 06:16:17;;;;;;;1.83;1.83;;;;;;;29.84;48.18;96386.06;5062493;28;20053;-68
2023/07/20 06:18:45;;;;;;;1.70;1.70;;;;;;;29.81;47.99;96347.13;5063933;28;20501;-70
2023/07/20 06:21:12;;;;;;;1.52;1.52;;;;;;;30.63;47.49;96440.88;5036394;28;20057;-72
2023/07/20 06:23:39;;;;;;;1.88;1.88;;;;;;;30.36;46.57;96387.28;5063236;28;20044;-69
2023/07/20 06:26:07;;;;;;;1.80;1.80;;;;;;;30.90;45.84;96437.25;5063201;28;20470;-66
2023/07/20 06:28:33;;;;;;;1.77;1.77;;;;;;;30.67;46.07;96372.72;5062362;28;20060;-72
2023/07/20 06:31:01;;;;;;;1.80;1.80;;;;;;;30.79;44.61;96371.44;5062921;28;20060;-73
2023/07/20 06:33:28;;;;;;;2.08;2.08;;;;;;;31.32;45.00;96421.09;5062746;28;20048;-69
2023/07/20 06:35:56;;;;;;;2.10;2.10;;;;;;;30.91;45.32;96366.50;5055445;28;20151;-71
2023/07/20 06:38:23;;;;;;;2.10;2.10;;;;;;;31.61;44.29;96431.97;5062920;28;20058;-76
2023/07/20 06:40:53;;;;;;;2.05;2.05;;;;;;;31.63;44.04;96429.38;5064414;28;20060;-68
2023/07/20 06:43:19;;;;;;;1.88;1.88;;;;;;;31.54;44.01;96392.41;5062837;28;20059;-70
2023/07/20 06:45:53;;;;;;;1.80;1.80;;;;;;;31.88;43.73;96411.88;5062048;28;20048;-70
2023/07/20 06:48:21;;;;;;;2.20;2.20;;;;;;;31.98;43.79;96420.97;5057871;28;20049;-70
2023/07/20 06:50:48;;;;;;;1.90;1.90;;;;;;;31.37;43.95;96308.66;5048541;28;20576;-71
2023/07/20 06:53:15;;;;;;;1.83;1.83;;;;;;;31.82;43.62;96384.53;5070872;28;20056;-67
2023/07/20 06:55:42;;;;;;;1.70;1.70;;;;;;;31.82;43.76;96344.41;5052419;28;20052;-69
2023/07/20 06:58:10;;;;;;;2.00;2.00;;;;;;;32.30;43.17;96396.25;5064132;28;20048;-70
2023/07/20 07:00:38;;;;;;;2.30;2.30;;;;;;;32.40;43.09;96400.41;5059003;28;20045;-65
2023/07/20 07:03:04;;;;;;;1.90;1.90;;;;;;;32.48;42.32;96404.28;5054166;28;20052;-68
2023/07/20 07:05:34;;;;;;;2.17;2.17;;;;;;;32.59;42.21;96389.84;5048590;28;20114;-72
2023/07/20 07:08:04;;;;;;;2.35;2.35;;;;;;;32.22;42.60;96343.66;5054472;28;20205;-66
2023/07/20 07:10:32;;;;;;;1.95;1.95;;;;;;;32.50;42.52;96380.78;5058971;28;20538;-67
2023/07/20 07:13:00;;;;;;;2.30;2.30;;;;;;;32.80;42.27;96402.44;5042430;28;20088;-66
2023/07/20 07:15:27;;;;;;;2.20;2.20;;;;;;;32.84;42.02;96405.81;5057019;28;20431;-66
2023/07/20 07:17:54;;;;;;;2.10;2.10;;;;;;;32.67;41.80;96367.88;5062924;28;20049;-68
2023/07/20 07:20:22;;;;;;;2.00;2.00;;;;;;;32.70;42.19;96361.06;5062973;28;20056;-68
2023/07/20 07:22:50;;;;;;;2.17;2.17;;;;;;;31.57;42.87;96296.88;5062119;28;20045;-73
2023/07/20 07:25:22;;;;;;;;;;;;;;;32.36;42.53;96405.59;5056199;28;20439;-65
2023/07/20 07:27:50;;;;;;;2.00;2.00;;;;;;;31.24;44.91;96359.94;5056610;28;19924;-70
2023/07/20 07:30:17;;;;;;;2.15;2.15;;;;;;;31.64;44.88;96408.00;5061098;28;20052;-68
2023/07/20 07:32:44;;;;;;;2.00;2.00;;;;;;;31.42;44.45;96293.56;5056854;28;20049;-70
2023/07/20 07:35:11;;;;;;;2.00;2.00;;;;;;;32.43;42.86;96405.09;5055907;28;20051;-68
2023/07/20 07:37:38;;;;;;;1.98;1.98;;;;;;;32.31;43.02;96335.53;5062661;28;20139;-75
2023/07/20 07:40:24;;;;;;;2.22;2.22;;;;;;;33.15;41.32;96393.81;5050034;28;20091;-69
2023/07/20 07:42:51;;;;;;;2.00;2.00;;;;;;;33.39;39.43;96382.38;5061098;28;20049;-71
2023/07/20 07:45:18;;;;;;;1.90;1.90;;;;;;;33.91;39.41;96399.31;5063107;28;20699;-70
2023/07/20 07:47:45;;;;;;;1.77;1.77;;;;;;;32.95;40.35;96227.81;5062196;28;20044;-76
2023/07/20 07:50:11;;;;;;;1.80;1.80;;;;;;;34.03;39.83;96376.94;5061711;28;20110;-67
2023/07/20 07:52:38;;;;;;;1.73;1.73;;;;;;;34.11;40.61;96372.13;5062414;28;20056;-63
2023/07/20 07:55:05;;;;;;;1.90;1.90;;;;;;;34.09;38.32;96397.78;5063062;28;20056;-68
2023/07/20 07:57:32;;;;;;;2.08;2.08;;;;;;;33.14;39.19;96263.06;5061215;28;20428;-73
2023/07/20 07:59:58;;;;;;;2.08;2.08;;;;;;;34.25;39.92;96388.16;5062587;28;20048;-68
2023/07/20 08:02:26;;;;;;;1.95;1.95;;;;;;;34.50;38.82;96386.75;5060608;28;20041;-61
2023/07/20 08:04:52;;;;;;;2.00;2.00;;;;;;;34.63;37.77;96383.94;5063166;28;20090;-65
2023/07/20 08:07:19;;;;;;;2.05;2.05;;;;;;;34.85;38.23;96372.06;5062776;28;20110;-71
2023/07/20 08:09:46;;;;;;;2.20;2.20;;;;;;;34.35;38.26;96282.88;5062311;28;20062;-70
2023/07/20 08:12:13;;;;;;;2.00;2.00;;;;;;;34.44;37.86;96303.41;5062304;28;20057;-71
2023/07/20 08:14:40;;;;;;;2.10;2.10;;;;;;;34.52;37.95;96361.09;5060925;28;20114;-64
2023/07/20 08:17:07;;;;;;;2.03;2.03;;;;;;;33.65;39.05;96233.19;5062136;28;20052;-73
2023/07/20 08:19:34;;;;;;;1.85;1.85;;;;;;;33.44;39.21;96372.94;5042414;28;20083;-64
2023/07/20 08:22:02;;;;;;;2.17;2.17;;;;;;;32.34;40.54;96336.56;5043004;28;20053;-70
2023/07/20 08:24:29;;;;;;;1.83;1.83;;;;;;;31.87;39.69;96208.94;5059723;28;20056;-62
2023/07/20 08:26:56;;;;;;;2.25;2.25;;;;;;;33.07;37.94;96332.56;5061225;28;20435;-71
2023/07/20 08:29:23;;;;;;;1.90;1.90;;;;;;;33.31;37.57;96323.97;5061633;28;20155;-65
2023/07/20 08:31:52;;;;;;;2.17;2.17;;;;;;;33.95;37.37;96399.00;5062450;28;20518;-69
2023/07/20 08:34:19;;;;;;;2.30;2.30;;;;;;;33.06;37.97;96278.56;5061105;28;20598;-72
2023/07/20 08:36:58;;;;;;;2.53;2.42;;;;;;;34.03;37.16;96368.31;5053954;28;20049;-70
2023/07/20 08:39:25;;;;;;;2.20;2.20;;;;;;;34.26;37.32;96381.06;5060030;28;21143;-64
2023/07/20 08:41:52;;;;;;;2.10;2.10;;;;;;;34.29;37.54;96397.25;5041998;28;20049;-70
2023/07/20 08:44:19;;;;;;;2.10;2.10;;;;;;;34.08;37.41;96361.72;5042015;28;20064;-70
2023/07/20 08:46:47;;;;;;;2.08;2.08;;;;;;;34.27;37.49;96382.63;5062724;28;20048;-71
2023/07/20 08:49:17;;;;;;;2.30;2.30;;;;;;;32.92;35.94;96148.53;5063128;28;20083;-74
2023/07/20 08:51:46;;;;;;;2.13;2.13;;;;;;;34.54;35.93;96375.72;5064799;28;20056;-67
2023/07/20 08:54:13;;;;;;;2.20;2.20;;;;;;;34.19;36.61;96361.56;5063670;28;20088;-66
2023/07/20 08:56:41;;;;;;;2.20;2.20;;;;;;;34.25;35.58;96388.16;5065044;28;20051;-67
2023/07/20 08:59:13;;;;;;;2.10;2.10;;;;;;;34.30;35.50;96390.97;5064616;28;20128;-68
2023/07/20 09:01:40;;;;;;;2.15;2.15;;;;;;;33.83;35.92;96294.09;5065539;28;20052;-70
2023/07/20 09:04:07;;;;;;;2.00;2.00;;;;;;;34.24;36.17;96311.81;5064079;28;20433;-71
2023/07/20 09:06:35;;;;;;;1.92;1.92;;;;;;;34.67;35.71;96384.41;5064876;28;20052;-65
2023/07/20 09:09:02;;;;;;;2.05;2.05;;;;;;;34.99;35.46;96370.81;5062315;28;20052;-68
2023/07/20 09:11:29;;;;;;;1.85;1.85;;;;;;;34.60;34.77;96292.97;5062340;28;20098;-71
2023/07/20 09:14:05;;;;;;;2.10;2.10;;;;;;;35.07;34.76;96368.84;5065963;28;20110;-70
2023/07/20 09:16:32;;;;;;;2.38;2.35;;;;;;;34.92;34.46;96339.81;5064809;28;20056;-70
2023/07/20 09:18:59;;;;;;;1.98;1.98;;;;;;;34.94;33.16;96311.22;5065948;28;20209;-69
2023/07/20 09:21:33;;;;;;;1.67;1.67;;;;;;;34.78;33.39;96300.75;5065632;28;20048;-70
2023/07/20 09:24:00;;;;;;;2.10;2.10;;;;;;;34.99;33.57;96295.94;5064357;28;20052;-69
2023/07/20 09:26:26;;;;;;;1.90;1.90;;;;;;;35.05;33.06;96294.53;5065999;28;20083;-70
2023/07/20 09:28:55;;;;;;;1.90;1.90;;;;;;;33.59;33.44;96045.75;5065904;28;20127;-70
2023/07/20 09:31:22;;;;;;;1.75;1.75;;;;;;;35.47;32.53;96324.38;5065577;28;20102;-69
2023/07/20 09:33:52;;;;;;;1.92;1.92;;;;;;;35.13;33.38;96323.44;5064643;28;20587;-70
2023/07/20 09:36:22;;;;;;;2.20;2.20;;;;;;;34.85;33.26;96234.69;5063773;28;20247;-74
2023/07/20 09:39:08;;;;;;;2.03;2.03;;;;;;;35.45;33.42;96332.81;5062954;28;20134;-69
2023/07/20 09:41:42;;;;;;;2.20;2.20;;;;;;;35.32;34.03;96295.31;5063090;28;20064;-72
2023/07/20 09:44:13;;;;;;;2.08;2.08;;;;;;;35.59;34.26;96302.66;5065556;28;20091;-72
2023/07/20 09:46:50;;;;;;;1.67;1.67;;;;;;;35.65;33.20;96190.88;5065062;28;20573;-77
2023/07/20 09:49:20;;;;;;;1.98;1.98;;;;;;;34.04;33.53;96079.50;5047728;28;20060;-67
2023/07/20 09:51:50;;;;;;;2.03;2.03;;;;;;;33.94;34.82;96185.50;5064524;28;20049;-71
2023/07/20 09:54:17;;;;;;;2.08;2.08;;;;;;;34.95;34.83;96295.50;5056807;28;20132;-73
2023/07/20 09:56:45;;;;;;;2.33;2.33;;;;;;;35.05;33.92;96239.81;5044704;28;20059;-66
2023/07/20 09:59:12;;;;;;;2.30;2.30;;;;;;;35.79;33.42;96313.47;5055643;28;20508;-66
2023/07/20 10:01:42;;;;;;;2.20;2.20;;;;;;;35.82;33.94;96309.47;5060605;28;20066;-69
2023/07/20 10:04:11;;;;;;;1.98;1.98;;;;;;;35.97;33.61;96303.94;5063143;28;20127;-64
2023/07/20 10:06:42;;;;;;;1.92;1.92;;;;;;;35.61;33.25;96282.69;5059439;28;20487;-68
2023/07/20 10:09:12;;;;;;;2.30;2.30;;;;;;;35.83;33.54;96276.47;5062219;28;20056;-75
2023/07/20 10:11:43;;;;;;;2.10;2.10;;;;;;;35.34;33.62;96150.69;5042985;28;20155;-71
2023/07/20 10:14:16;;;;;;;2.13;2.13;;;;;;;36.49;33.93;96286.47;5060325;28;20048;-67
2023/07/20 10:16:51;;;;;;;2.05;2.05;;;;;;;35.78;34.53;96274.47;5062413;28;20135;-73
2023/07/20 10:19:50;;;;;;;2.10;2.10;;;;;;;35.78;35.76;96286.00;5063095;28;20075;-67
2023/07/20 10:22:25;;;;;;;2.30;2.30;;;;;;;35.65;35.55;96213.16;5051297;28;21021;-66
2023/07/20 10:24:54;;;;;;;1.77;1.77;;;;;;;35.10;37.19;96275.56;5062372;28;20132;-69
2023/07/20 10:27:20;;;;;;;2.10;2.10;;;;;;;33.81;37.70;96216.25;5063604;28;20037;-72
2023/07/20 10:29:48;;;;;;;2.00;2.00;;;;;;;34.62;37.65;96247.16;5062959;28;20053;-70
2023/07/20 10:32:15;;;;;;;2.22;2.22;;;;;;;35.40;37.56;96283.91;5062214;28;20052;-68
2023/07/20 10:34:42;;;;;;;1.98;1.98;;;;;;;34.87;38.14;96231.25;5062580;28;20124;-69
2023/07/20 10:37:09;;;;;;;1.77;1.77;;;;;;;33.60;38.81;96213.94;5062588;28;20491;-67
2023/07/20 10:39:35;;;;;;;2.20;2.20;;;;;;;34.72;38.20;96254.78;5063818;28;20163;-69
2023/07/20 10:42:10;;;;;;;2.30;2.30;;;;;;;34.66;38.84;96210.19;5063557;28;20572;-68
2023/07/20 10:44:38;;;;;;;1.80;1.80;;;;;;;34.85;40.25;96268.44;5062730;28;20048;-69
2023/07/20 10:47:12;;;;;;;1.95;1.95;;;;;;;34.87;39.02;96265.78;5061632;28;20050;-68
2023/07/20 10:50:02;;;;;;;2.05;2.05;;;;;;;34.20;39.99;96167.56;5063427;28;20134;-64
2023/07/20 10:52:41;;;;;;;1.90;1.90;;;;;;;35.41;39.26;96263.19;5059976;28;20056;-70
2023/07/20 10:55:16;;;;;;;1.80;1.80;;;;;;;35.33;39.56;96268.03;5054845;28;20073;-69
2023/07/20 10:57:42;;;;;;;2.08;2.08;;;;;;;34.88;39.49;96267.34;5058664;28;20048;-70
2023/07/20 11:00:14;;;;;;;2.17;2.17;;;;;;;35.26;39.53;96251.44;5063155;28;20059;-69
2023/07/20 11:02:45;;;;;;;2.17;2.17;;;;;;;35.65;38.05;96262.94;5062622;28;20056;-66
2023/07/20 11:05:36;;;;;;;2.10;2.10;;;;;;;34.39;38.84;96099.25;5060574;28;20051;-72
2023/07/20 11:08:05;;;;;;;2.30;2.30;;;;;;;35.45;38.83;96275.16;5060173;28;20616;-68
2023/07/20 11:10:32;;;;;;;1.70;1.70;;;;;;;34.56;39.75;96266.59;5060728;28;20058;-67
2023/07/20 11:13:24;;;;;;;1.92;1.92;;;;;;;35.15;38.72;96268.94;5062711;28;20072;-67
2023/07/20 11:15:57;;;;;;;2.05;2.05;;;;;;;35.27;39.03;96267.38;5059938;28;20114;-70
2023/07/20 11:18:27;;;;;;;2.08;2.08;;;;;;;34.89;40.58;96268.91;5052942;28;20059;-64
2023/07/20 11:20:54;;;;;;;1.70;1.70;;;;;;;34.40;40.35;96178.50;5062009;28;20485;-71
2023/07/20 11:23:21;;;;;;;2.00;2.00;;;;;;;34.88;39.76;96261.59;5063668;28;20049;-65
2023/07/20 11:25:49;;;;;;;2.20;2.20;;;;;;;35.21;39.11;96240.78;5063191;28;20064;-63
2023/07/20 11:28:16;;;;;;;2.17;2.17;;;;;;;35.17;39.81;96262.63;5063807;28;20063;-65
2023/07/20 11:30:43;;;;;;;1.80;1.80;;;;;;;34.73;40.45;96249.81;5061844;28;20053;-64
2023/07/20 11:33:10;;;;;;;2.15;2.15;;;;;;;34.71;40.74;96226.56;5062038;28;20515;-65
2023/07/20 11:35:47;;;;;;;2.08;2.08;;;;;;;34.87;40.92;96254.28;5061391;28;20049;-65
2023/07/20 11:38:14;;;;;;;1.92;1.92;;;;;;;35.65;39.89;96245.66;5063830;28;20278;-72
2023/07/20 11:40:45;;;;;;;2.00;2.00;;;;;;;36.23;39.02;96246.16;5061655;28;20048;-70
2023/07/20 11:43:15;;;;;;;2.13;2.13;;;;;;;36.16;38.28;96166.09;5063648;28;20076;-66